• Join FlightAware (Why Join?)
  • Login
  • US Flag 
12:26AM EDT


 

Airport Tracker/Info


-or-


 

Live Flight TrackerFlight Track Log ✈ CTL337 ✈ 14-Jun-2013 ✈ KBKL - KOSU

Flight Track Log - Related Links

Times and Time Zones

All times are in EDT time to prevent confusion due to time zone crossing. See the CTL337 flight status page for this flight to view local times or setup timezone preferences in your user account.

Time Position Orientation Groundspeed Altitude Reporting Facility
EDT Latitude Longitude Course Direction KTS MPH feet Rate Location/Type
09:58PM 41.5125 -81.6978 308° West 105 121 900  Level Cleveland Center
09:59PM 41.5289 -81.7258 308° West 94 108 2,300 1,260 Climbing Cleveland Center
10:00PM 41.5433 -81.7594 300° West 107 123 3,500 1,200 Climbing Cleveland Center
10:01PM 41.5200 -81.7922 226° Southwest 111 128 5,100 1,020 Climbing Cleveland Center
10:02PM 41.4925 -81.8194 217° Southwest 111 128 6,000 480 Climbing Cleveland Center
10:03PM 41.4589 -81.8494 214° Southwest 169 194 6,100 -60 Climbing Cleveland Center
10:04PM 41.4231 -81.8819 214° Southwest 185 213 5,900 -60 Descending Cleveland Center
10:05PM 41.3853 -81.9142 213° Southwest 172 198 6,000  Climbing Cleveland Center
10:06PM 41.3453 -81.9494 214° Southwest 176 203 5,900 -60 Descending Cleveland Center
10:07PM 41.2989 -81.9928 215° Southwest 179 206 5,900  Level Cleveland Center
10:08PM 41.2567 -82.0333 216° Southwest 176 203 6,000  Climbing Cleveland Center
10:10PM 41.1714 -82.1075 213° Southwest 179 206 6,000  Level Indianapolis Center
10:11PM 41.1314 -82.1464 216° Southwest 177 204 6,000 -60 Level Indianapolis Center
10:12PM 41.0831 -82.1892 214° Southwest 178 205 5,900 -60 Descending Indianapolis Center
10:13PM 41.0428 -82.2272 215° Southwest 177 204 5,900  Level Indianapolis Center
10:14PM 41.0036 -82.2644 216° Southwest 174 200 5,900  Level Indianapolis Center
10:15PM 40.9633 -82.3003 214° Southwest 173 199 6,000  Climbing Indianapolis Center
10:16PM 40.9231 -82.3381 215° Southwest 175 201 6,000 -60 Level Indianapolis Center
10:17PM 40.8842 -82.3750 216° Southwest 173 199 5,900  Descending Indianapolis Center
10:18PM 40.8444 -82.4122 215° Southwest 173 199 6,000  Climbing Indianapolis Center
10:19PM 40.8039 -82.4478 214° Southwest 174 200 6,000 -60 Level Indianapolis Center
10:20PM 40.7636 -82.4844 215° Southwest 175 201 5,900 -60 Descending Indianapolis Center
10:21PM 40.7242 -82.5206 215° Southwest 173 199 5,900  Level Indianapolis Center
10:23PM 40.6847 -82.5581 216° Southwest 173 199 5,900  Level Indianapolis Center
10:24PM 40.6475 -82.5972 219° Southwest 170 196 5,900  Level Indianapolis Center
10:25PM 40.6064 -82.6339 214° Southwest 175 201 5,900  Level Indianapolis Center
10:26PM 40.5661 -82.6694 214° Southwest 174 200 5,900  Level Indianapolis Center
10:27PM 40.5264 -82.7078 216° Southwest 175 201 5,900  Level Indianapolis Center
10:28PM 40.4856 -82.7447 215° Southwest 176 203 5,900  Level Indianapolis Center
10:28PM 40.4619 -82.7683 217° Southwest 176 203 5,900  Level Indianapolis Center
10:29PM 40.4442 -82.7786 204° Southwest 174 200 5,900  Level Indianapolis Center
10:29PM 40.4242 -82.7997 219° Southwest 176 203 5,900 -120 Level Indianapolis Center
10:30PM 40.4033 -82.8158 210° Southwest 178 205 5,800 -300 Descending Indianapolis Center
10:30PM 40.3803 -82.8331 210° Southwest 181 208 5,600 -540 Descending Indianapolis Center
10:31PM 40.3575 -82.8478 206° Southwest 183 211 5,300 -660 Descending Indianapolis Center
10:31PM 40.3294 -82.8739 215° Southwest 192 221 4,900 -720 Descending Indianapolis Center
10:32PM 40.3036 -82.8903 206° Southwest 190 219 4,600 -540 Descending Indianapolis Center
10:32PM 40.2850 -82.9125 222° Southwest 191 220 4,400 -540 Descending Indianapolis Center
10:33PM 40.2594 -82.9306 208° Southwest 191 220 4,100 -600 Descending Indianapolis Center
10:33PM 40.2406 -82.9511 220° Southwest 190 219 3,800 -900 Descending Indianapolis Center
10:34PM 40.2153 -82.9700 210° Southwest 192 221 3,200 -1,140 Descending Indianapolis Center
10:34PM 40.1983 -82.9844 213° Southwest 198 228 2,800 -720 Descending Indianapolis Center
10:35PM 40.1692 -83.0081 212° Southwest 194 223 2,500 -420 Descending Indianapolis Center
10:35PM 40.1542 -83.0203 212° Southwest 182 209 2,400 -600 Descending Indianapolis Center
10:36PM 40.1269 -83.0428 212° Southwest 186 214 1,900 -600 Descending Indianapolis Center
10:36PM 40.1144 -83.0511 207° Southwest 169 194 1,800 -240 Descending Indianapolis Center
10:37PM 40.1017 -83.0786 239° Southwest 159 183 1,700 -420 Descending Indianapolis Center
10:38PM 40.0797 -83.0983 215° Southwest 124 143 1,100 -360 Descending Indianapolis Center
10:39PM 40.0722 -83.0733 111° Southeast 111 128 1,000 -120 Descending Indianapolis Center